sensor_id;sensor_type;location;lat;lon;timestamp;temperature;humidity
12853;DHT22;6495;51.808;7.478;2023-12-14T00:02:13;7.40;99.90
12853;DHT22;6495;51.808;7.478;2023-12-14T00:04:42;7.30;99.90
12853;DHT22;6495;51.808;7.478;2023-12-14T00:07:12;7.30;99.90
12853;DHT22;6495;51.808;7.478;2023-12-14T00:09:43;7.30;99.90
12853;DHT22;6495;51.808;7.478;2023-12-14T00:12:11;7.20;99.90
12853;DHT22;6495;51.808;7.478;2023-12-14T00:14:40;7.20;99.90
12853;DHT22;6495;51.808;7.478;2023-12-14T00:17:08;7.20;99.90
12853;DHT22;6495;51.808;7.478;2023-12-14T00:19:37;7.20;99.90
12853;DHT22;6495;51.808;7.478;2023-12-14T00:22:05;7.20;99.90
12853;DHT22;6495;51.808;7.478;2023-12-14T00:24:35;7.20;99.90
12853;DHT22;6495;51.808;7.478;2023-12-14T00:27:04;7.20;99.90
12853;DHT22;6495;51.808;7.478;2023-12-14T00:29:33;7.10;99.90
12853;DHT22;6495;51.808;7.478;2023-12-14T00:32:01;7.10;99.90
12853;DHT22;6495;51.808;7.478;2023-12-14T00:34:30;7.10;99.90
12853;DHT22;6495;51.808;7.478;2023-12-14T00:36:59;7.10;99.90
12853;DHT22;6495;51.808;7.478;2023-12-14T00:39:28;7.10;99.90
12853;DHT22;6495;51.808;7.478;2023-12-14T00:41:58;7.10;99.90
12853;DHT22;6495;51.808;7.478;2023-12-14T00:44:27;7.10;99.90
12853;DHT22;6495;51.808;7.478;2023-12-14T00:46:55;7.10;99.90
12853;DHT22;6495;51.808;7.478;2023-12-14T00:49:25;7.10;99.90
12853;DHT22;6495;51.808;7.478;2023-12-14T00:51:57;7.10;99.90
12853;DHT22;6495;51.808;7.478;2023-12-14T00:54:25;7.10;99.90
12853;DHT22;6495;51.808;7.478;2023-12-14T00:56:54;7.10;99.90
12853;DHT22;6495;51.808;7.478;2023-12-14T00:59:24;7.10;99.90
12853;DHT22;6495;51.808;7.478;2023-12-14T01:01:52;7.10;99.90
12853;DHT22;6495;51.808;7.478;2023-12-14T01:04:21;7.00;99.90
12853;DHT22;6495;51.808;7.478;2023-12-14T01:06:49;7.00;99.90
12853;DHT22;6495;51.808;7.478;2023-12-14T01:09:18;7.00;99.90
12853;DHT22;6495;51.808;7.478;2023-12-14T01:11:46;7.00;99.90
12853;DHT22;6495;51.808;7.478;2023-12-14T01:14:15;7.00;99.90
12853;DHT22;6495;51.808;7.478;2023-12-14T01:16:45;7.00;99.90
12853;DHT22;6495;51.808;7.478;2023-12-14T01:19:14;7.00;99.90
12853;DHT22;6495;51.808;7.478;2023-12-14T01:21:42;7.00;99.90
12853;DHT22;6495;51.808;7.478;2023-12-14T01:24:11;7.00;99.90
12853;DHT22;6495;51.808;7.478;2023-12-14T01:26:39;6.90;99.90
12853;DHT22;6495;51.808;7.478;2023-12-14T01:29:08;6.90;99.90
12853;DHT22;6495;51.808;7.478;2023-12-14T01:31:38;6.90;99.90
12853;DHT22;6495;51.808;7.478;2023-12-14T01:34:08;6.90;99.90
12853;DHT22;6495;51.808;7.478;2023-12-14T01:36:38;6.90;99.90
12853;DHT22;6495;51.808;7.478;2023-12-14T01:39:07;6.90;99.90
12853;DHT22;6495;51.808;7.478;2023-12-14T01:41:36;6.90;99.90
12853;DHT22;6495;51.808;7.478;2023-12-14T01:44:04;6.90;99.90
12853;DHT22;6495;51.808;7.478;2023-12-14T01:46:33;6.90;99.90
12853;DHT22;6495;51.808;7.478;2023-12-14T01:49:01;6.80;99.90
12853;DHT22;6495;51.808;7.478;2023-12-14T01:51:31;6.80;99.90
12853;DHT22;6495;51.808;7.478;2023-12-14T01:54:02;6.80;99.90
12853;DHT22;6495;51.808;7.478;2023-12-14T01:56:30;6.80;99.90
12853;DHT22;6495;51.808;7.478;2023-12-14T01:58:59;6.80;99.90
12853;DHT22;6495;51.808;7.478;2023-12-14T02:01:36;6.80;99.90
12853;DHT22;6495;51.808;7.478;2023-12-14T02:04:08;6.80;99.90
12853;DHT22;6495;51.808;7.478;2023-12-14T02:06:39;6.70;99.90
12853;DHT22;6495;51.808;7.478;2023-12-14T02:09:09;6.70;99.90
12853;DHT22;6495;51.808;7.478;2023-12-14T02:11:38;6.70;99.90
12853;DHT22;6495;51.808;7.478;2023-12-14T02:14:09;6.70;99.90
12853;DHT22;6495;51.808;7.478;2023-12-14T02:16:38;6.70;99.90
12853;DHT22;6495;51.808;7.478;2023-12-14T02:19:06;6.70;99.90
12853;DHT22;6495;51.808;7.478;2023-12-14T02:21:35;6.70;99.90
12853;DHT22;6495;51.808;7.478;2023-12-14T02:24:05;6.60;99.90
12853;DHT22;6495;51.808;7.478;2023-12-14T02:26:34;6.60;99.90
12853;DHT22;6495;51.808;7.478;2023-12-14T02:29:02;6.60;99.90
12853;DHT22;6495;51.808;7.478;2023-12-14T02:31:31;6.60;99.90
12853;DHT22;6495;51.808;7.478;2023-12-14T02:33:59;6.60;99.90
12853;DHT22;6495;51.808;7.478;2023-12-14T02:36:28;6.60;99.90
12853;DHT22;6495;51.808;7.478;2023-12-14T02:38:56;6.60;99.90
12853;DHT22;6495;51.808;7.478;2023-12-14T02:41:26;6.50;99.90
12853;DHT22;6495;51.808;7.478;2023-12-14T02:43:54;6.50;99.90
12853;DHT22;6495;51.808;7.478;2023-12-14T02:46:23;6.50;99.90
12853;DHT22;6495;51.808;7.478;2023-12-14T02:48:51;6.50;99.90
12853;DHT22;6495;51.808;7.478;2023-12-14T02:51:20;6.50;99.90
12853;DHT22;6495;51.808;7.478;2023-12-14T02:53:48;6.50;99.90
12853;DHT22;6495;51.808;7.478;2023-12-14T02:56:17;6.50;99.90
12853;DHT22;6495;51.808;7.478;2023-12-14T02:58:47;6.50;99.90
12853;DHT22;6495;51.808;7.478;2023-12-14T03:01:19;6.40;99.90
12853;DHT22;6495;51.808;7.478;2023-12-14T03:03:48;6.40;99.90
12853;DHT22;6495;51.808;7.478;2023-12-14T03:06:19;6.40;99.90
12853;DHT22;6495;51.808;7.478;2023-12-14T03:08:48;6.40;99.90
12853;DHT22;6495;51.808;7.478;2023-12-14T03:11:23;6.40;99.90
12853;DHT22;6495;51.808;7.478;2023-12-14T03:13:53;6.30;99.90
12853;DHT22;6495;51.808;7.478;2023-12-14T03:16:22;6.30;99.90
12853;DHT22;6495;51.808;7.478;2023-12-14T03:18:50;6.30;99.90
12853;DHT22;6495;51.808;7.478;2023-12-14T03:21:20;6.30;99.90
12853;DHT22;6495;51.808;7.478;2023-12-14T03:23:49;6.30;99.90
12853;DHT22;6495;51.808;7.478;2023-12-14T03:26:18;6.30;99.90
12853;DHT22;6495;51.808;7.478;2023-12-14T03:28:46;6.20;99.90
12853;DHT22;6495;51.808;7.478;2023-12-14T03:31:16;6.20;99.90
12853;DHT22;6495;51.808;7.478;2023-12-14T03:33:45;6.20;99.90
12853;DHT22;6495;51.808;7.478;2023-12-14T03:36:14;6.20;99.90
12853;DHT22;6495;51.808;7.478;2023-12-14T03:38:42;6.20;99.90
12853;DHT22;6495;51.808;7.478;2023-12-14T03:41:14;6.20;99.90
12853;DHT22;6495;51.808;7.478;2023-12-14T03:43:44;6.20;99.90
12853;DHT22;6495;51.808;7.478;2023-12-14T03:46:12;6.20;99.90
12853;DHT22;6495;51.808;7.478;2023-12-14T03:48:43;6.20;99.90
12853;DHT22;6495;51.808;7.478;2023-12-14T03:51:11;6.20;99.90
12853;DHT22;6495;51.808;7.478;2023-12-14T03:53:40;6.20;99.90
12853;DHT22;6495;51.808;7.478;2023-12-14T03:56:08;6.20;99.90
12853;DHT22;6495;51.808;7.478;2023-12-14T03:58:37;6.20;99.90
12853;DHT22;6495;51.808;7.478;2023-12-14T04:01:06;6.20;99.90
12853;DHT22;6495;51.808;7.478;2023-12-14T04:03:34;6.10;99.90
12853;DHT22;6495;51.808;7.478;2023-12-14T04:06:05;6.20;99.90
12853;DHT22;6495;51.808;7.478;2023-12-14T04:08:33;6.20;99.90
12853;DHT22;6495;51.808;7.478;2023-12-14T04:11:02;6.20;99.90
12853;DHT22;6495;51.808;7.478;2023-12-14T04:13:30;6.10;99.90
12853;DHT22;6495;51.808;7.478;2023-12-14T04:15:59;6.20;99.90
12853;DHT22;6495;51.808;7.478;2023-12-14T04:18:28;6.20;99.90
12853;DHT22;6495;51.808;7.478;2023-12-14T04:20:56;6.20;99.90
12853;DHT22;6495;51.808;7.478;2023-12-14T04:23:26;6.20;99.90
12853;DHT22;6495;51.808;7.478;2023-12-14T04:25:55;6.20;99.90
12853;DHT22;6495;51.808;7.478;2023-12-14T04:28:23;6.10;99.90
12853;DHT22;6495;51.808;7.478;2023-12-14T04:30:52;6.20;99.90
12853;DHT22;6495;51.808;7.478;2023-12-14T04:33:20;6.20;99.90
12853;DHT22;6495;51.808;7.478;2023-12-14T04:35:49;6.20;99.90
12853;DHT22;6495;51.808;7.478;2023-12-14T04:38:17;6.20;99.90
12853;DHT22;6495;51.808;7.478;2023-12-14T04:40:47;6.20;99.90
12853;DHT22;6495;51.808;7.478;2023-12-14T04:43:16;6.10;99.90
12853;DHT22;6495;51.808;7.478;2023-12-14T04:45:44;6.10;99.90
12853;DHT22;6495;51.808;7.478;2023-12-14T04:48:12;6.10;99.90
12853;DHT22;6495;51.808;7.478;2023-12-14T04:50:41;6.10;99.90
12853;DHT22;6495;51.808;7.478;2023-12-14T04:53:10;6.10;99.90
12853;DHT22;6495;51.808;7.478;2023-12-14T04:55:38;6.10;99.90
12853;DHT22;6495;51.808;7.478;2023-12-14T04:58:10;6.10;99.90
12853;DHT22;6495;51.808;7.478;2023-12-14T05:00:39;6.10;99.90
12853;DHT22;6495;51.808;7.478;2023-12-14T05:03:07;6.10;99.90
12853;DHT22;6495;51.808;7.478;2023-12-14T05:05:38;6.10;99.90
12853;DHT22;6495;51.808;7.478;2023-12-14T05:08:07;6.10;99.90
12853;DHT22;6495;51.808;7.478;2023-12-14T05:10:35;6.20;99.90
12853;DHT22;6495;51.808;7.478;2023-12-14T05:13:04;6.20;99.90
12853;DHT22;6495;51.808;7.478;2023-12-14T05:15:37;6.10;99.90
12853;DHT22;6495;51.808;7.478;2023-12-14T05:18:06;6.10;99.90
12853;DHT22;6495;51.808;7.478;2023-12-14T05:20:35;6.10;99.90
12853;DHT22;6495;51.808;7.478;2023-12-14T05:23:03;6.10;99.90
12853;DHT22;6495;51.808;7.478;2023-12-14T05:25:34;6.10;99.90
12853;DHT22;6495;51.808;7.478;2023-12-14T05:28:03;6.10;99.90
12853;DHT22;6495;51.808;7.478;2023-12-14T05:30:31;6.10;99.90
12853;DHT22;6495;51.808;7.478;2023-12-14T05:33:03;6.10;99.90
12853;DHT22;6495;51.808;7.478;2023-12-14T05:35:31;6.10;99.90
12853;DHT22;6495;51.808;7.478;2023-12-14T05:38:00;6.10;99.90
12853;DHT22;6495;51.808;7.478;2023-12-14T05:40:29;6.10;99.90
12853;DHT22;6495;51.808;7.478;2023-12-14T05:42:58;6.10;99.90
12853;DHT22;6495;51.808;7.478;2023-12-14T05:45:27;6.10;99.90
12853;DHT22;6495;51.808;7.478;2023-12-14T05:47:55;6.10;99.90
12853;DHT22;6495;51.808;7.478;2023-12-14T05:50:25;6.00;99.90
12853;DHT22;6495;51.808;7.478;2023-12-14T05:52:54;6.00;99.90
12853;DHT22;6495;51.808;7.478;2023-12-14T05:55:22;6.00;99.90
12853;DHT22;6495;51.808;7.478;2023-12-14T05:57:50;6.00;99.90
12853;DHT22;6495;51.808;7.478;2023-12-14T06:00:19;6.00;99.90
12853;DHT22;6495;51.808;7.478;2023-12-14T06:02:47;6.00;99.90
12853;DHT22;6495;51.808;7.478;2023-12-14T06:05:16;6.00;99.90
12853;DHT22;6495;51.808;7.478;2023-12-14T06:07:46;6.00;99.90
12853;DHT22;6495;51.808;7.478;2023-12-14T06:10:14;6.00;99.90
12853;DHT22;6495;51.808;7.478;2023-12-14T06:12:43;6.00;99.90
12853;DHT22;6495;51.808;7.478;2023-12-14T06:15:11;6.00;99.90
12853;DHT22;6495;51.808;7.478;2023-12-14T06:17:39;5.90;99.90
12853;DHT22;6495;51.808;7.478;2023-12-14T06:20:10;5.90;99.90
12853;DHT22;6495;51.808;7.478;2023-12-14T06:22:39;5.90;99.90
12853;DHT22;6495;51.808;7.478;2023-12-14T06:25:09;5.90;99.90
12853;DHT22;6495;51.808;7.478;2023-12-14T06:27:37;5.90;99.90
12853;DHT22;6495;51.808;7.478;2023-12-14T06:30:09;5.90;99.90
12853;DHT22;6495;51.808;7.478;2023-12-14T06:32:38;5.90;99.90
12853;DHT22;6495;51.808;7.478;2023-12-14T06:35:08;5.90;99.90
12853;DHT22;6495;51.808;7.478;2023-12-14T06:37:36;5.90;99.90
12853;DHT22;6495;51.808;7.478;2023-12-14T06:40:06;5.90;99.90
12853;DHT22;6495;51.808;7.478;2023-12-14T06:42:36;5.90;99.90
12853;DHT22;6495;51.808;7.478;2023-12-14T06:45:06;5.90;99.90
12853;DHT22;6495;51.808;7.478;2023-12-14T06:47:37;5.90;99.90
12853;DHT22;6495;51.808;7.478;2023-12-14T06:50:09;5.90;99.90
12853;DHT22;6495;51.808;7.478;2023-12-14T06:52:37;5.90;99.90
12853;DHT22;6495;51.808;7.478;2023-12-14T06:55:06;5.90;99.90
12853;DHT22;6495;51.808;7.478;2023-12-14T06:57:37;5.90;99.90
12853;DHT22;6495;51.808;7.478;2023-12-14T07:00:07;5.90;99.90
12853;DHT22;6495;51.808;7.478;2023-12-14T07:02:36;5.90;99.90
12853;DHT22;6495;51.808;7.478;2023-12-14T07:05:05;5.90;99.90
12853;DHT22;6495;51.808;7.478;2023-12-14T07:07:34;6.00;99.90
12853;DHT22;6495;51.808;7.478;2023-12-14T07:10:02;6.00;99.90
12853;DHT22;6495;51.808;7.478;2023-12-14T07:12:31;5.90;99.90
12853;DHT22;6495;51.808;7.478;2023-12-14T07:15:00;5.90;99.90
12853;DHT22;6495;51.808;7.478;2023-12-14T07:17:29;5.90;99.90
12853;DHT22;6495;51.808;7.478;2023-12-14T07:19:58;5.90;99.90
12853;DHT22;6495;51.808;7.478;2023-12-14T07:22:26;5.90;99.90
12853;DHT22;6495;51.808;7.478;2023-12-14T07:24:55;5.90;99.90
12853;DHT22;6495;51.808;7.478;2023-12-14T07:27:29;5.90;99.90
12853;DHT22;6495;51.808;7.478;2023-12-14T07:30:01;5.90;99.90
12853;DHT22;6495;51.808;7.478;2023-12-14T07:32:29;5.90;99.90
12853;DHT22;6495;51.808;7.478;2023-12-14T07:34:57;5.90;99.90
12853;DHT22;6495;51.808;7.478;2023-12-14T07:37:26;5.90;99.90
12853;DHT22;6495;51.808;7.478;2023-12-14T07:39:54;5.90;99.90
12853;DHT22;6495;51.808;7.478;2023-12-14T07:42:22;5.90;99.90
12853;DHT22;6495;51.808;7.478;2023-12-14T07:44:53;5.90;99.90
12853;DHT22;6495;51.808;7.478;2023-12-14T07:47:26;5.90;99.90
12853;DHT22;6495;51.808;7.478;2023-12-14T07:49:54;5.90;99.90
12853;DHT22;6495;51.808;7.478;2023-12-14T07:52:28;5.90;99.90
12853;DHT22;6495;51.808;7.478;2023-12-14T07:55:00;5.90;99.90
12853;DHT22;6495;51.808;7.478;2023-12-14T07:57:30;5.90;99.90
12853;DHT22;6495;51.808;7.478;2023-12-14T07:59:58;5.90;99.90
12853;DHT22;6495;51.808;7.478;2023-12-14T08:02:28;5.90;99.90
12853;DHT22;6495;51.808;7.478;2023-12-14T08:04:56;5.90;99.90
12853;DHT22;6495;51.808;7.478;2023-12-14T08:07:24;5.90;99.90
12853;DHT22;6495;51.808;7.478;2023-12-14T08:09:56;5.90;99.90
12853;DHT22;6495;51.808;7.478;2023-12-14T08:12:24;5.90;99.90
12853;DHT22;6495;51.808;7.478;2023-12-14T08:14:53;5.90;99.90
12853;DHT22;6495;51.808;7.478;2023-12-14T08:17:21;6.00;99.90
12853;DHT22;6495;51.808;7.478;2023-12-14T08:19:51;6.00;99.90
12853;DHT22;6495;51.808;7.478;2023-12-14T08:22:19;5.90;99.90
12853;DHT22;6495;51.808;7.478;2023-12-14T08:24:48;5.90;99.90
12853;DHT22;6495;51.808;7.478;2023-12-14T08:27:17;6.00;99.90
12853;DHT22;6495;51.808;7.478;2023-12-14T08:29:46;6.00;99.90
12853;DHT22;6495;51.808;7.478;2023-12-14T08:32:15;6.00;99.90
12853;DHT22;6495;51.808;7.478;2023-12-14T08:34:44;6.00;99.90
12853;DHT22;6495;51.808;7.478;2023-12-14T08:37:14;5.90;99.90
12853;DHT22;6495;51.808;7.478;2023-12-14T08:39:43;5.90;99.90
12853;DHT22;6495;51.808;7.478;2023-12-14T08:42:12;5.90;99.90
12853;DHT22;6495;51.808;7.478;2023-12-14T08:44:41;5.90;99.90
12853;DHT22;6495;51.808;7.478;2023-12-14T08:47:09;5.80;99.90
12853;DHT22;6495;51.808;7.478;2023-12-14T08:49:38;5.80;99.90
12853;DHT22;6495;51.808;7.478;2023-12-14T08:52:06;5.80;99.90
12853;DHT22;6495;51.808;7.478;2023-12-14T08:54:37;5.80;99.90
12853;DHT22;6495;51.808;7.478;2023-12-14T08:57:05;5.80;99.90
12853;DHT22;6495;51.808;7.478;2023-12-14T08:59:33;5.80;99.90
12853;DHT22;6495;51.808;7.478;2023-12-14T09:02:02;5.80;99.90
12853;DHT22;6495;51.808;7.478;2023-12-14T09:04:31;5.80;99.90
12853;DHT22;6495;51.808;7.478;2023-12-14T09:07:02;5.80;99.90
12853;DHT22;6495;51.808;7.478;2023-12-14T09:09:31;5.80;99.90
12853;DHT22;6495;51.808;7.478;2023-12-14T09:12:01;5.70;99.90
12853;DHT22;6495;51.808;7.478;2023-12-14T09:14:30;5.70;99.90
12853;DHT22;6495;51.808;7.478;2023-12-14T09:16:58;5.70;99.90
12853;DHT22;6495;51.808;7.478;2023-12-14T09:19:29;5.70;99.90
12853;DHT22;6495;51.808;7.478;2023-12-14T09:21:58;5.70;99.90
12853;DHT22;6495;51.808;7.478;2023-12-14T09:24:27;5.70;99.90
12853;DHT22;6495;51.808;7.478;2023-12-14T09:26:55;5.70;99.90
12853;DHT22;6495;51.808;7.478;2023-12-14T09:29:25;5.70;99.90
12853;DHT22;6495;51.808;7.478;2023-12-14T09:31:53;5.70;99.90
12853;DHT22;6495;51.808;7.478;2023-12-14T09:34:22;5.70;99.90
12853;DHT22;6495;51.808;7.478;2023-12-14T09:36:51;5.70;99.90
12853;DHT22;6495;51.808;7.478;2023-12-14T09:39:23;5.70;99.90
12853;DHT22;6495;51.808;7.478;2023-12-14T09:41:51;5.70;99.90
12853;DHT22;6495;51.808;7.478;2023-12-14T09:44:20;5.70;99.90
12853;DHT22;6495;51.808;7.478;2023-12-14T09:46:52;5.70;99.90
12853;DHT22;6495;51.808;7.478;2023-12-14T09:49:21;5.70;99.90
12853;DHT22;6495;51.808;7.478;2023-12-14T09:51:51;5.70;99.90
12853;DHT22;6495;51.808;7.478;2023-12-14T09:54:20;5.70;99.90
12853;DHT22;6495;51.808;7.478;2023-12-14T09:56:48;5.70;99.90
12853;DHT22;6495;51.808;7.478;2023-12-14T09:59:17;5.70;99.90
12853;DHT22;6495;51.808;7.478;2023-12-14T10:01:46;5.70;99.90
12853;DHT22;6495;51.808;7.478;2023-12-14T10:04:18;5.70;99.90
12853;DHT22;6495;51.808;7.478;2023-12-14T10:06:47;5.70;99.90
12853;DHT22;6495;51.808;7.478;2023-12-14T10:09:22;5.70;99.90
12853;DHT22;6495;51.808;7.478;2023-12-14T10:12:02;5.70;99.90
12853;DHT22;6495;51.808;7.478;2023-12-14T10:14:32;5.70;99.90
12853;DHT22;6495;51.808;7.478;2023-12-14T10:17:14;5.70;99.90
12853;DHT22;6495;51.808;7.478;2023-12-14T10:19:47;5.70;99.90
12853;DHT22;6495;51.808;7.478;2023-12-14T10:22:17;5.70;99.90
12853;DHT22;6495;51.808;7.478;2023-12-14T10:24:47;5.70;99.90
12853;DHT22;6495;51.808;7.478;2023-12-14T10:27:16;5.70;99.90
12853;DHT22;6495;51.808;7.478;2023-12-14T10:29:45;5.70;99.90
12853;DHT22;6495;51.808;7.478;2023-12-14T10:32:14;5.80;99.90
12853;DHT22;6495;51.808;7.478;2023-12-14T10:34:42;5.80;99.90
12853;DHT22;6495;51.808;7.478;2023-12-14T10:37:13;5.80;99.90
12853;DHT22;6495;51.808;7.478;2023-12-14T10:39:43;5.80;99.90
12853;DHT22;6495;51.808;7.478;2023-12-14T10:42:14;5.80;99.90
12853;DHT22;6495;51.808;7.478;2023-12-14T10:44:51;5.80;99.90
12853;DHT22;6495;51.808;7.478;2023-12-14T10:47:23;5.80;99.90
12853;DHT22;6495;51.808;7.478;2023-12-14T10:49:51;5.70;99.90
12853;DHT22;6495;51.808;7.478;2023-12-14T10:52:24;5.70;99.90
12853;DHT22;6495;51.808;7.478;2023-12-14T10:55:00;5.70;99.90
12853;DHT22;6495;51.808;7.478;2023-12-14T10:57:34;5.70;99.90
12853;DHT22;6495;51.808;7.478;2023-12-14T11:00:04;5.70;99.90
12853;DHT22;6495;51.808;7.478;2023-12-14T11:02:39;5.70;99.90
12853;DHT22;6495;51.808;7.478;2023-12-14T11:05:12;5.70;99.90
12853;DHT22;6495;51.808;7.478;2023-12-14T11:07:45;5.70;99.90
12853;DHT22;6495;51.808;7.478;2023-12-14T11:10:15;5.70;99.90
12853;DHT22;6495;51.808;7.478;2023-12-14T11:13:01;5.70;99.90
12853;DHT22;6495;51.808;7.478;2023-12-14T11:15:34;5.70;99.90
12853;DHT22;6495;51.808;7.478;2023-12-14T11:18:25;5.70;99.90
12853;DHT22;6495;51.808;7.478;2023-12-14T11:20:55;5.70;99.90
12853;DHT22;6495;51.808;7.478;2023-12-14T11:23:35;5.70;99.90
12853;DHT22;6495;51.808;7.478;2023-12-14T11:26:08;5.70;99.90
12853;DHT22;6495;51.808;7.478;2023-12-14T11:28:39;5.70;99.90
12853;DHT22;6495;51.808;7.478;2023-12-14T11:31:10;5.70;99.90
12853;DHT22;6495;51.808;7.478;2023-12-14T11:33:40;5.70;99.90
12853;DHT22;6495;51.808;7.478;2023-12-14T11:36:12;5.70;99.90
12853;DHT22;6495;51.808;7.478;2023-12-14T11:38:44;5.70;99.90
12853;DHT22;6495;51.808;7.478;2023-12-14T11:41:14;5.70;99.90
12853;DHT22;6495;51.808;7.478;2023-12-14T11:43:43;5.70;99.90
12853;DHT22;6495;51.808;7.478;2023-12-14T11:46:12;5.70;99.90
12853;DHT22;6495;51.808;7.478;2023-12-14T11:48:44;5.80;99.90
12853;DHT22;6495;51.808;7.478;2023-12-14T11:51:13;5.70;99.90
12853;DHT22;6495;51.808;7.478;2023-12-14T11:53:46;5.80;99.90
12853;DHT22;6495;51.808;7.478;2023-12-14T11:56:17;5.70;99.90
12853;DHT22;6495;51.808;7.478;2023-12-14T11:58:46;5.70;99.90
12853;DHT22;6495;51.808;7.478;2023-12-14T12:01:16;5.70;99.90
12853;DHT22;6495;51.808;7.478;2023-12-14T12:03:46;5.70;99.90
12853;DHT22;6495;51.808;7.478;2023-12-14T12:06:21;5.70;99.90
12853;DHT22;6495;51.808;7.478;2023-12-14T12:08:52;5.70;99.90
12853;DHT22;6495;51.808;7.478;2023-12-14T12:11:22;5.70;99.90
12853;DHT22;6495;51.808;7.478;2023-12-14T12:13:56;5.70;99.90
12853;DHT22;6495;51.808;7.478;2023-12-14T12:16:27;5.70;99.90
12853;DHT22;6495;51.808;7.478;2023-12-14T12:18:55;5.70;99.90
12853;DHT22;6495;51.808;7.478;2023-12-14T12:21:24;5.70;99.90
12853;DHT22;6495;51.808;7.478;2023-12-14T12:23:53;5.70;99.90
12853;DHT22;6495;51.808;7.478;2023-12-14T12:26:22;5.70;99.90
12853;DHT22;6495;51.808;7.478;2023-12-14T12:28:50;5.70;99.90
12853;DHT22;6495;51.808;7.478;2023-12-14T12:31:19;5.70;99.90
12853;DHT22;6495;51.808;7.478;2023-12-14T12:33:47;5.70;99.90
12853;DHT22;6495;51.808;7.478;2023-12-14T12:36:16;5.80;99.90
12853;DHT22;6495;51.808;7.478;2023-12-14T12:38:44;5.80;99.90
12853;DHT22;6495;51.808;7.478;2023-12-14T12:41:14;5.80;99.90
12853;DHT22;6495;51.808;7.478;2023-12-14T12:43:43;5.80;99.90
12853;DHT22;6495;51.808;7.478;2023-12-14T12:46:12;5.80;99.90
12853;DHT22;6495;51.808;7.478;2023-12-14T12:48:40;5.80;99.90
12853;DHT22;6495;51.808;7.478;2023-12-14T12:51:09;5.80;99.90
12853;DHT22;6495;51.808;7.478;2023-12-14T12:53:37;5.80;99.90
12853;DHT22;6495;51.808;7.478;2023-12-14T12:56:08;5.80;99.90
12853;DHT22;6495;51.808;7.478;2023-12-14T12:58:37;5.80;99.90
12853;DHT22;6495;51.808;7.478;2023-12-14T13:01:06;5.80;99.90
12853;DHT22;6495;51.808;7.478;2023-12-14T13:03:35;5.80;99.90
12853;DHT22;6495;51.808;7.478;2023-12-14T13:06:04;5.80;99.90
12853;DHT22;6495;51.808;7.478;2023-12-14T13:08:33;5.80;99.90
12853;DHT22;6495;51.808;7.478;2023-12-14T13:11:01;5.70;99.90
12853;DHT22;6495;51.808;7.478;2023-12-14T13:13:29;5.70;99.90
12853;DHT22;6495;51.808;7.478;2023-12-14T13:15:59;5.70;99.90
12853;DHT22;6495;51.808;7.478;2023-12-14T13:18:28;5.70;99.90
12853;DHT22;6495;51.808;7.478;2023-12-14T13:20:56;5.70;99.90
12853;DHT22;6495;51.808;7.478;2023-12-14T13:23:24;5.70;99.90
12853;DHT22;6495;51.808;7.478;2023-12-14T13:25:52;5.70;99.90
12853;DHT22;6495;51.808;7.478;2023-12-14T13:28:21;5.70;99.90
12853;DHT22;6495;51.808;7.478;2023-12-14T13:30:50;5.70;99.90
12853;DHT22;6495;51.808;7.478;2023-12-14T13:33:20;5.70;99.90
12853;DHT22;6495;51.808;7.478;2023-12-14T13:35:51;5.70;99.90
12853;DHT22;6495;51.808;7.478;2023-12-14T13:38:19;5.70;99.90
12853;DHT22;6495;51.808;7.478;2023-12-14T13:40:48;5.70;99.90
12853;DHT22;6495;51.808;7.478;2023-12-14T13:43:16;5.70;99.90
12853;DHT22;6495;51.808;7.478;2023-12-14T13:45:45;5.70;99.90
12853;DHT22;6495;51.808;7.478;2023-12-14T13:48:25;5.80;99.90
12853;DHT22;6495;51.808;7.478;2023-12-14T13:50:55;5.80;99.90
12853;DHT22;6495;51.808;7.478;2023-12-14T13:53:24;5.80;99.90
12853;DHT22;6495;51.808;7.478;2023-12-14T13:55:52;5.80;99.90
12853;DHT22;6495;51.808;7.478;2023-12-14T13:58:20;5.80;99.90
12853;DHT22;6495;51.808;7.478;2023-12-14T14:00:49;5.80;99.90
12853;DHT22;6495;51.808;7.478;2023-12-14T14:03:17;5.80;99.90
12853;DHT22;6495;51.808;7.478;2023-12-14T14:05:47;5.80;99.90
12853;DHT22;6495;51.808;7.478;2023-12-14T14:08:16;5.80;99.90
12853;DHT22;6495;51.808;7.478;2023-12-14T14:10:45;5.80;99.90
12853;DHT22;6495;51.808;7.478;2023-12-14T14:13:13;5.80;99.90
12853;DHT22;6495;51.808;7.478;2023-12-14T14:15:41;5.80;99.90
12853;DHT22;6495;51.808;7.478;2023-12-14T14:18:10;5.80;99.90
12853;DHT22;6495;51.808;7.478;2023-12-14T14:20:38;5.80;99.90
12853;DHT22;6495;51.808;7.478;2023-12-14T14:23:08;5.80;99.90
12853;DHT22;6495;51.808;7.478;2023-12-14T14:25:37;5.80;99.90
12853;DHT22;6495;51.808;7.478;2023-12-14T14:28:05;5.80;99.90
12853;DHT22;6495;51.808;7.478;2023-12-14T14:30:33;5.80;99.90
12853;DHT22;6495;51.808;7.478;2023-12-14T14:33:02;5.80;99.90
12853;DHT22;6495;51.808;7.478;2023-12-14T14:35:31;5.80;99.90
12853;DHT22;6495;51.808;7.478;2023-12-14T14:38:01;5.80;99.90
12853;DHT22;6495;51.808;7.478;2023-12-14T14:40:30;5.80;99.90
12853;DHT22;6495;51.808;7.478;2023-12-14T14:42:59;5.80;99.90
12853;DHT22;6495;51.808;7.478;2023-12-14T14:45:27;5.80;99.90
12853;DHT22;6495;51.808;7.478;2023-12-14T14:47:55;5.90;99.90
12853;DHT22;6495;51.808;7.478;2023-12-14T14:50:24;5.90;99.90
12853;DHT22;6495;51.808;7.478;2023-12-14T14:52:52;5.90;99.90
12853;DHT22;6495;51.808;7.478;2023-12-14T14:55:21;5.90;99.90
12853;DHT22;6495;51.808;7.478;2023-12-14T14:57:50;5.90;99.90
12853;DHT22;6495;51.808;7.478;2023-12-14T15:00:19;5.90;99.90
12853;DHT22;6495;51.808;7.478;2023-12-14T15:02:48;5.80;99.90
12853;DHT22;6495;51.808;7.478;2023-12-14T15:05:16;5.90;99.90
12853;DHT22;6495;51.808;7.478;2023-12-14T15:07:44;5.90;99.90
12853;DHT22;6495;51.808;7.478;2023-12-14T15:10:15;5.90;99.90
12853;DHT22;6495;51.808;7.478;2023-12-14T15:12:44;5.90;99.90
12853;DHT22;6495;51.808;7.478;2023-12-14T15:15:14;5.80;99.90
12853;DHT22;6495;51.808;7.478;2023-12-14T15:17:42;5.80;99.90
12853;DHT22;6495;51.808;7.478;2023-12-14T15:20:11;5.80;99.90
12853;DHT22;6495;51.808;7.478;2023-12-14T15:22:39;5.80;99.90
12853;DHT22;6495;51.808;7.478;2023-12-14T15:25:08;5.90;99.90
12853;DHT22;6495;51.808;7.478;2023-12-14T15:27:37;5.90;99.90
12853;DHT22;6495;51.808;7.478;2023-12-14T15:30:07;5.90;99.90
12853;DHT22;6495;51.808;7.478;2023-12-14T15:32:39;5.90;99.90
12853;DHT22;6495;51.808;7.478;2023-12-14T15:35:08;5.90;99.90
12853;DHT22;6495;51.808;7.478;2023-12-14T15:37:37;5.80;99.90
12853;DHT22;6495;51.808;7.478;2023-12-14T15:40:07;5.80;99.90
12853;DHT22;6495;51.808;7.478;2023-12-14T15:42:36;5.80;99.90
12853;DHT22;6495;51.808;7.478;2023-12-14T15:45:08;5.80;99.90
12853;DHT22;6495;51.808;7.478;2023-12-14T15:47:37;5.80;99.90
12853;DHT22;6495;51.808;7.478;2023-12-14T15:50:07;5.80;99.90
12853;DHT22;6495;51.808;7.478;2023-12-14T15:52:36;5.80;99.90
12853;DHT22;6495;51.808;7.478;2023-12-14T15:55:11;5.80;99.90
12853;DHT22;6495;51.808;7.478;2023-12-14T15:57:41;5.70;99.90
12853;DHT22;6495;51.808;7.478;2023-12-14T16:00:14;5.70;99.90
12853;DHT22;6495;51.808;7.478;2023-12-14T16:02:43;5.70;99.90
12853;DHT22;6495;51.808;7.478;2023-12-14T16:05:12;5.70;99.90
12853;DHT22;6495;51.808;7.478;2023-12-14T16:07:41;5.70;99.90
12853;DHT22;6495;51.808;7.478;2023-12-14T16:10:12;5.70;99.90
12853;DHT22;6495;51.808;7.478;2023-12-14T16:12:40;5.70;99.90
12853;DHT22;6495;51.808;7.478;2023-12-14T16:15:09;5.70;99.90
12853;DHT22;6495;51.808;7.478;2023-12-14T16:17:37;5.60;99.90